Time;durP1;ratioP1;P1;durP2;ratioP2;P2;SDS_P1;SDS_P2;PMS_P1;PMS_P2;Temp;Humidity;BMP_temperature;BMP_pressure;BME280_temperature;BME280_humidity;BME280_pressure;Samples;Min_cycle;Max_cycle;Signal;HPM_P1;HPM_P2
2023/08/23 00:00:00;;;;;;;;;;;;;;;29.02;50.60;99643.41;348998;28;864;-73
2023/08/23 00:00:11;;;;;;;;;;;;;;;29.00;49.99;99644.63;347421;28;1309;-73
2023/08/23 00:00:21;;;;;;;;;;;;;;;29.00;50.01;99645.47;347609;28;940;-73
2023/08/23 00:00:31;;;;;;;;;;;;;;;28.99;50.17;99648.34;348126;28;970;-74
2023/08/23 00:00:41;;;;;;;;;;;;;;;28.96;49.66;99643.31;347656;28;1305;-73
2023/08/23 00:00:52;;;;;;;;;;;;;;;28.95;49.77;99652.41;350017;28;1102;-73
2023/08/23 00:01:02;;;;;;;;;;;;;;;28.95;50.22;99647.00;345379;28;1192;-73
2023/08/23 00:01:12;;;;;;;;;;;;;;;28.95;50.00;99647.00;343415;28;980;-73
2023/08/23 00:01:22;;;;;;;;;;;;;;;28.94;50.14;99645.34;343615;28;1338;-73
2023/08/23 00:01:33;;;;;;;;;;;;;;;28.93;49.63;99640.97;342362;28;1588;-73
2023/08/23 00:01:43;;;;;;;;;;;;;;;28.90;49.73;99642.16;343688;28;1057;-73
2023/08/23 00:01:53;;;;;;;;;;;;;;;28.89;49.65;99647.72;342121;28;1262;-73
2023/08/23 00:02:04;;;;;;;;;;;;;;;28.90;50.11;99646.72;344161;28;986;-73
2023/08/23 00:02:14;;;;;;;;;;;;;;;28.92;49.86;99639.28;346216;28;852;-73
2023/08/23 00:02:24;;;;;;;;;;;;;;;28.93;49.86;99643.66;346032;28;1509;-73
2023/08/23 00:02:34;;;;;;;;;;;;;;;28.95;49.56;99647.00;344909;28;929;-73
2023/08/23 00:02:45;;;;;;;;;;;;;;;28.94;49.67;99646.16;346124;28;1213;-73
2023/08/23 00:02:55;;;;;;;;;;;;;;;28.95;50.30;99644.31;343594;28;1123;-74
2023/08/23 00:03:05;;;;;;;;;;;;;;;28.95;49.58;99647.84;340495;28;1240;-74
2023/08/23 00:03:15;;;;;;;;;;;;;;;28.97;50.17;99644.97;339628;29;1557;-74
2023/08/23 00:03:26;;;;;;;;;;;;;;;28.97;50.05;99644.97;338358;29;794;-74
2023/08/23 00:03:36;;;;;;;;;;;;;;;28.97;49.64;99644.97;340379;29;1291;-74
2023/08/23 00:03:46;;;;;;;;;;;;;;;28.97;49.57;99650.38;339803;29;1718;-74
2023/08/23 00:03:56;;;;;;;;;;;;;;;28.97;50.00;99644.97;340829;29;1024;-74
2023/08/23 00:04:07;;;;;;;;;;;;;;;28.97;49.79;99655.75;339644;29;1268;-74
2023/08/23 00:04:19;;;;;;;;;;;;;;;28.98;49.70;99649.34;340784;29;1334;-74
2023/08/23 00:04:34;;;;;;;;;;;;;;;28.98;50.22;99650.19;340843;29;1348;-74
2023/08/23 00:04:44;;;;;;;;;;;;;;;28.98;50.81;99650.19;340877;29;1117;-74
2023/08/23 00:04:54;;;;;;;;;;;;;;;28.98;50.50;99654.75;340790;29;1980;-74
2023/08/23 00:05:04;;;;;;;;;;;;;;;28.99;50.17;99648.34;336806;29;1289;-74
2023/08/23 00:05:15;;;;;;;;;;;;;;;29.00;50.73;99650.84;336015;29;1766;-74
2023/08/23 00:05:25;;;;;;;;;;;;;;;29.01;50.56;99651.69;331931;29;1309;-74
2023/08/23 00:05:35;;;;;;;;;;;;;;;29.02;50.38;99650.66;336943;29;1900;-74
2023/08/23 00:05:45;;;;;;;;;;;;;;;29.03;50.47;99649.63;337228;29;1938;-74
2023/08/23 00:05:56;;;;;;;;;;;;;;;29.03;50.66;99649.63;334335;29;1468;-74
2023/08/23 00:06:06;;;;;;;;;;;;;;;29.03;51.07;99645.06;336469;29;2123;-74
2023/08/23 00:06:16;;;;;;;;;;;;;;;29.04;50.49;99651.28;336589;29;1985;-74
2023/08/23 00:06:26;;;;;;;;;;;;;;;29.04;50.66;99651.28;337007;29;889;-74
2023/08/23 00:06:36;;;;;;;;;;;;;;;29.04;50.99;99648.59;333347;29;2829;-74
2023/08/23 00:06:47;;;;;;;;;;;;;;;29.04;51.07;99648.59;330022;29;4802;-74
2023/08/23 00:06:57;;;;;;;;;;;;;;;29.04;51.12;99651.28;330505;29;5556;-74
2023/08/23 00:07:07;;;;;;;;;;;;;;;29.04;51.07;99645.91;334188;29;2941;-74
2023/08/23 00:07:18;;;;;;;;;;;;;;;29.04;51.10;99651.28;333883;29;2000;-74
2023/08/23 00:07:28;;;;;;;;;;;;;;;29.05;50.52;99650.28;331353;29;2224;-74
2023/08/23 00:07:38;;;;;;;;;;;;;;;29.03;51.27;99644.22;330667;29;899;-74
2023/08/23 00:07:48;;;;;;;;;;;;;;;29.04;51.19;99656.69;332447;29;2379;-74
2023/08/23 00:07:58;;;;;;;;;;;;;;;29.04;50.88;99645.91;332621;29;3284;-74
2023/08/23 00:08:09;;;;;;;;;;;;;;;29.04;50.59;99645.91;330595;29;922;-74
2023/08/23 00:08:19;;;;;;;;;;;;;;;29.05;50.56;99655.66;329433;29;2741;-74
2023/08/23 00:08:29;;;;;;;;;;;;;;;29.05;51.33;99647.59;326968;30;3060;-74
2023/08/23 00:08:39;;;;;;;;;;;;;;;29.06;50.81;99650.09;327019;30;890;-74
2023/08/23 00:08:50;;;;;;;;;;;;;;;29.07;50.83;99648.25;330031;29;1359;-74
2023/08/23 00:09:00;;;;;;;;;;;;;;;29.06;51.07;99650.09;330035;29;1964;-75
2023/08/23 00:09:10;;;;;;;;;;;;;;;29.08;51.18;99641.81;328096;30;1207;-75
2023/08/23 00:09:20;;;;;;;;;;;;;;;29.07;50.64;99651.78;325349;30;2473;-75
2023/08/23 00:09:31;;;;;;;;;;;;;;;29.08;50.70;99652.63;324642;30;2707;-75
2023/08/23 00:09:41;;;;;;;;;;;;;;;29.08;51.04;99658.00;325915;30;824;-75
2023/08/23 00:09:51;;;;;;;;;;;;;;;29.08;50.74;99652.63;324926;30;3374;-75
2023/08/23 00:10:02;;;;;;;;;;;;;;;29.07;50.63;99650.94;322881;30;3307;-75
2023/08/23 00:10:12;;;;;;;;;;;;;;;29.07;50.45;99650.94;319719;30;837;-75
2023/08/23 00:10:22;;;;;;;;;;;;;;;29.07;50.42;99650.94;317141;30;3539;-75
2023/08/23 00:10:32;;;;;;;;;;;;;;;29.06;51.16;99649.25;318345;30;3410;-75
2023/08/23 00:10:43;;;;;;;;;;;;;;;29.06;50.77;99651.94;318222;30;2488;-75
2023/08/23 00:10:54;;;;;;;;;;;;;;;29.06;50.56;99649.25;319734;30;916;-75
2023/08/23 00:11:04;;;;;;;;;;;;;;;29.06;50.57;99654.66;314611;31;2373;-75
2023/08/23 00:11:14;;;;;;;;;;;;;;;29.05;50.57;99653.81;311394;31;2925;-75
2023/08/23 00:11:25;;;;;;;;;;;;;;;29.06;51.05;99654.66;310813;31;845;-75
2023/08/23 00:11:35;;;;;;;;;;;;;;;29.05;51.27;99647.59;311511;31;3241;-75
2023/08/23 00:11:45;;;;;;;;;;;;;;;29.06;51.04;99651.94;310013;31;3701;-75
2023/08/23 00:11:55;;;;;;;;;;;;;;;29.06;51.24;99654.66;309731;31;874;-75
2023/08/23 00:12:06;;;;;;;;;;;;;;;29.06;50.84;99657.34;307731;31;4537;-75
2023/08/23 00:12:16;;;;;;;;;;;;;;;29.05;50.93;99651.13;309093;31;4575;-75
2023/08/23 00:12:26;;;;;;;;;;;;;;;29.05;50.91;99653.81;311966;31;811;-75
2023/08/23 00:12:36;;;;;;;;;;;;;;;29.06;51.01;99649.25;309558;31;4856;-75
2023/08/23 00:12:49;;;;;;;;;;;;;;;29.05;51.06;99652.97;310319;31;4806;-75
2023/08/23 00:12:59;;;;;;;;;;;;;;;29.05;51.06;99658.34;310831;31;3214;-73
2023/08/23 00:13:09;;;;;;;;;;;;;;;29.05;50.94;99655.66;306337;32;1157;-73
2023/08/23 00:13:20;;;;;;;;;;;;;;;29.06;51.66;99654.66;304089;32;3347;-72
2023/08/23 00:13:30;;;;;;;;;;;;;;;29.05;51.17;99648.41;304221;32;4208;-73
2023/08/23 00:13:41;;;;;;;;;;;;;;;29.06;51.18;99654.66;305377;32;864;-73
2023/08/23 00:13:51;;;;;;;;;;;;;;;29.04;51.54;99654.81;304048;32;4838;-73
2023/08/23 00:14:02;;;;;;;;;;;;;;;29.03;50.94;99649.63;303375;32;5542;-73
2023/08/23 00:14:12;;;;;;;;;;;;;;;29.01;51.30;99651.69;303127;32;5974;-73
2023/08/23 00:14:23;;;;;;;;;;;;;;;28.99;51.19;99653.72;300076;32;1427;-74
2023/08/23 00:14:33;;;;;;;;;;;;;;;28.95;51.91;99657.78;298814;32;6574;-74
2023/08/23 00:14:43;;;;;;;;;;;;;;;28.94;51.76;99661.50;298268;32;6220;-74
2023/08/23 00:14:53;;;;;;;;;;;;;;;28.93;52.07;99657.13;299011;33;1327;-76
2023/08/23 00:15:04;;;;;;;;;;;;;;;28.92;51.64;99655.44;295622;33;6457;-75
2023/08/23 00:15:14;;;;;;;;;;;;;;;28.91;51.55;99656.47;293235;33;4800;-75
2023/08/23 00:15:24;;;;;;;;;;;;;;;28.88;52.77;99662.22;294224;33;834;-73
2023/08/23 00:15:36;;;;;;;;;;;;;;;28.87;52.38;99660.53;294370;33;5263;-73
2023/08/23 00:15:46;;;;;;;;;;;;;;;28.85;52.57;99663.41;291723;33;6467;-73
2023/08/23 00:15:56;;;;;;;;;;;;;;;28.86;52.57;99662.41;291195;34;883;-74
2023/08/23 00:16:07;;;;;;;;;;;;;;;28.86;52.73;99664.25;290625;33;8313;-74
2023/08/23 00:16:17;;;;;;;;;;;;;;;28.86;52.87;99659.69;288453;34;7999;-74
2023/08/23 00:16:27;;;;;;;;;;;;;;;28.85;53.11;99655.31;289243;34;3201;-74
2023/08/23 00:16:38;;;;;;;;;;;;;;;28.85;52.68;99662.56;283949;34;8081;-74
2023/08/23 00:16:48;;;;;;;;;;;;;;;28.82;53.08;99660.22;284291;34;9973;-74
2023/08/23 00:19:04;;;;;;;;;;;;;;;28.86;53.61;99661.56;2497299;27;19936;-74
2023/08/23 00:19:14;;;;;;;;;;;;;;;28.86;53.43;99658.84;354450;27;1300;-74
2023/08/23 00:19:24;;;;;;;;;;;;;;;28.87;53.39;99652.44;353213;28;963;-74
2023/08/23 00:19:35;;;;;;;;;;;;;;;28.87;52.96;99660.53;350393;28;1242;-74
2023/08/23 00:19:46;;;;;;;;;;;;;;;28.87;53.08;99661.38;350375;28;1244;-74
2023/08/23 00:19:56;;;;;;;;;;;;;;;28.89;53.11;99661.19;348922;28;1292;-74
2023/08/23 00:20:06;;;;;;;;;;;;;;;28.88;53.46;99667.59;348964;28;831;-74
2023/08/23 00:20:17;;;;;;;;;;;;;;;28.88;53.12;99656.81;349626;28;1209;-74
2023/08/23 00:20:27;;;;;;;;;;;;;;;28.88;52.93;99657.66;351022;28;1494;-74
2023/08/23 00:20:37;;;;;;;;;;;;;;;28.88;53.69;99662.22;350363;28;1395;-74
2023/08/23 00:20:47;;;;;;;;;;;;;;;28.88;53.50;99663.06;350445;28;815;-74
2023/08/23 00:20:57;;;;;;;;;;;;;;;28.87;53.20;99664.06;350314;28;1565;-74
2023/08/23 00:21:08;;;;;;;;;;;;;;;28.88;53.13;99667.59;348878;28;1334;-74
2023/08/23 00:21:18;;;;;;;;;;;;;;;28.85;53.13;99663.41;347572;28;1121;-74
2023/08/23 00:21:28;;;;;;;;;;;;;;;28.84;53.27;99668.97;348921;28;1289;-74
2023/08/23 00:21:39;;;;;;;;;;;;;;;28.83;53.51;99664.59;348924;28;1573;-74
2023/08/23 00:21:49;;;;;;;;;;;;;;;28.80;53.68;99666.59;349059;28;1469;-74
2023/08/23 00:21:59;;;;;;;;;;;;;;;28.79;53.83;99659.53;349593;28;1488;-74
2023/08/23 00:22:09;;;;;;;;;;;;;;;28.79;53.68;99664.94;348960;28;906;-74
2023/08/23 00:22:20;;;;;;;;;;;;;;;28.78;53.69;99665.09;346225;28;1297;-74
2023/08/23 00:22:30;;;;;;;;;;;;;;;28.76;53.29;99665.28;348386;28;1208;-74
2023/08/23 00:22:40;;;;;;;;;;;;;;;28.73;53.44;99662.94;348925;28;1349;-74
2023/08/23 00:22:50;;;;;;;;;;;;;;;28.72;53.84;99663.13;347471;28;1217;-74
2023/08/23 00:23:00;;;;;;;;;;;;;;;28.72;53.62;99661.28;347231;28;1002;-74
2023/08/23 00:23:11;;;;;;;;;;;;;;;28.72;53.72;99661.28;346265;28;1188;-74
2023/08/23 00:23:21;;;;;;;;;;;;;;;28.73;53.21;99660.25;346331;28;868;-74
2023/08/23 00:23:31;;;;;;;;;;;;;;;28.73;53.31;99659.41;346489;28;886;-74
2023/08/23 00:23:41;;;;;;;;;;;;;;;28.72;53.24;99663.97;346849;28;1763;-74
2023/08/23 00:23:51;;;;;;;;;;;;;;;28.73;53.01;99659.41;347657;28;911;-74
2023/08/23 00:24:02;;;;;;;;;;;;;;;28.72;53.41;99658.56;347664;28;810;-74
2023/08/23 00:24:12;;;;;;;;;;;;;;;28.73;53.14;99659.41;348793;28;1426;-74
2023/08/23 00:24:22;;;;;;;;;;;;;;;28.71;53.08;99656.91;349016;28;748;-74
2023/08/23 00:24:32;;;;;;;;;;;;;;;28.73;53.62;99654.88;349043;28;1090;-74
2023/08/23 00:24:43;;;;;;;;;;;;;;;28.71;53.19;99656.06;348167;28;1238;-74
2023/08/23 00:24:53;;;;;;;;;;;;;;;28.71;53.24;99656.91;349055;28;1273;-74
2023/08/23 00:25:03;;;;;;;;;;;;;;;28.71;53.11;99662.28;348952;28;1119;-74
2023/08/23 00:25:13;;;;;;;;;;;;;;;28.71;53.07;99661.44;350332;28;1196;-74
2023/08/23 00:25:24;;;;;;;;;;;;;;;28.71;53.57;99661.44;348826;28;1550;-73
2023/08/23 00:25:34;;;;;;;;;;;;;;;28.71;53.09;99651.50;349267;28;2778;-73
2023/08/23 00:25:44;;;;;;;;;;;;;;;28.70;53.50;99657.91;342351;28;4826;-73
2023/08/23 00:25:54;;;;;;;;;;;;;;;28.72;53.63;99665.81;343603;28;3030;-73
2023/08/23 00:26:04;;;;;;;;;;;;;;;28.72;53.53;99658.56;343294;28;1433;-73
2023/08/23 00:26:15;;;;;;;;;;;;;;;28.71;53.72;99658.75;343433;28;3258;-74
2023/08/23 00:26:25;;;;;;;;;;;;;;;28.71;53.60;99659.59;344983;28;1223;-74
2023/08/23 00:26:35;;;;;;;;;;;;;;;28.71;53.07;99662.28;346179;28;1258;-74
2023/08/23 00:26:45;;;;;;;;;;;;;;;28.71;53.54;99656.91;346209;28;1169;-74
2023/08/23 00:26:56;;;;;;;;;;;;;;;28.72;53.17;99661.28;345083;28;1230;-74
2023/08/23 00:27:06;;;;;;;;;;;;;;;28.72;53.01;99658.56;345198;28;1423;-74
2023/08/23 00:27:16;;;;;;;;;;;;;;;28.73;53.39;99660.25;345936;28;1395;-74
2023/08/23 00:27:26;;;;;;;;;;;;;;;28.73;53.38;99659.41;343029;28;1403;-74
2023/08/23 00:27:37;;;;;;;;;;;;;;;28.72;53.27;99655.88;342293;28;821;-74
2023/08/23 00:27:47;;;;;;;;;;;;;;;28.73;53.17;99657.56;342018;28;1547;-74
2023/08/23 00:27:57;;;;;;;;;;;;;;;28.72;53.49;99661.28;342522;28;1283;-74
2023/08/23 00:28:07;;;;;;;;;;;;;;;28.72;53.29;99661.28;343443;28;1223;-74
2023/08/23 00:28:19;;;;;;;;;;;;;;;28.71;53.42;99656.91;343616;28;820;-74
2023/08/23 00:28:29;;;;;;;;;;;;;;;28.70;53.18;99657.06;343508;28;927;-74
2023/08/23 00:28:39;;;;;;;;;;;;;;;28.69;53.39;99667.00;343403;28;1260;-74
2023/08/23 00:28:50;;;;;;;;;;;;;;;28.70;53.12;99657.91;342108;28;1862;-74
2023/08/23 00:29:00;;;;;;;;;;;;;;;28.70;53.69;99662.47;343118;28;1498;-74
2023/08/23 00:29:10;;;;;;;;;;;;;;;28.69;53.20;99660.78;342153;28;1813;-74
2023/08/23 00:29:20;;;;;;;;;;;;;;;28.69;53.73;99661.63;339696;29;996;-75
2023/08/23 00:29:31;;;;;;;;;;;;;;;28.68;53.30;99656.41;342447;28;1907;-74
2023/08/23 00:29:41;;;;;;;;;;;;;;;28.68;52.95;99665.34;342901;28;2093;-74
2023/08/23 00:29:51;;;;;;;;;;;;;;;28.68;53.74;99657.25;339668;29;1212;-74
2023/08/23 00:30:02;;;;;;;;;;;;;;;28.69;53.68;99661.63;338019;29;2057;-74
2023/08/23 00:30:12;;;;;;;;;;;;;;;28.68;53.69;99661.78;334632;29;1581;-74
2023/08/23 00:30:22;;;;;;;;;;;;;;;28.65;53.77;99663.00;334403;29;1252;-74
2023/08/23 00:30:32;;;;;;;;;;;;;;;28.64;53.46;99655.94;336450;29;1979;-74
2023/08/23 00:30:49;;;;;;;;;;;;;;;28.65;53.38;99664.84;337061;29;1150;-74
2023/08/23 00:30:59;;;;;;;;;;;;;;;28.66;53.34;99658.44;336668;29;1764;-74
2023/08/23 00:31:10;;;;;;;;;;;;;;;28.66;53.15;99664.66;333646;29;2075;-74
2023/08/23 00:31:20;;;;;;;;;;;;;;;28.67;53.20;99663.66;330560;29;1340;-74
2023/08/23 00:31:30;;;;;;;;;;;;;;;28.67;53.93;99663.66;332773;29;2365;-74
2023/08/23 00:31:40;;;;;;;;;;;;;;;28.68;53.87;99661.78;332990;29;2361;-74
2023/08/23 00:31:50;;;;;;;;;;;;;;;28.68;53.82;99661.78;334494;29;918;-74
2023/08/23 00:32:01;;;;;;;;;;;;;;;28.68;53.68;99662.63;332369;29;2545;-74
2023/08/23 00:32:11;;;;;;;;;;;;;;;28.68;53.61;99661.78;329714;29;2664;-74
2023/08/23 00:32:21;;;;;;;;;;;;;;;28.67;53.20;99655.56;328138;30;823;-74
2023/08/23 00:32:31;;;;;;;;;;;;;;;28.69;53.79;99667.00;331961;29;1880;-75
2023/08/23 00:32:42;;;;;;;;;;;;;;;28.69;53.50;99664.31;330758;29;1357;-74
2023/08/23 00:32:52;;;;;;;;;;;;;;;28.68;53.65;99662.63;325642;30;1369;-74
2023/08/23 00:33:02;;;;;;;;;;;;;;;28.69;53.13;99669.69;326413;30;2090;-74
2023/08/23 00:33:12;;;;;;;;;;;;;;;28.70;53.29;99659.75;325589;30;2502;-74
2023/08/23 00:33:23;;;;;;;;;;;;;;;28.70;53.69;99666.00;324607;30;875;-74
2023/08/23 00:33:33;;;;;;;;;;;;;;;28.71;53.67;99659.59;322754;30;2888;-74
2023/08/23 00:33:43;;;;;;;;;;;;;;;28.70;53.79;99660.59;324549;30;3381;-74
2023/08/23 00:33:53;;;;;;;;;;;;;;;28.70;53.44;99666.00;325006;30;3088;-74
2023/08/23 00:34:04;;;;;;;;;;;;;;;28.70;53.65;99662.47;324602;30;1246;-74
2023/08/23 00:34:14;;;;;;;;;;;;;;;28.69;53.19;99672.41;323294;30;3396;-74
2023/08/23 00:34:24;;;;;;;;;;;;;;;28.71;53.41;99664.13;323083;30;3325;-74
2023/08/23 00:34:34;;;;;;;;;;;;;;;28.70;53.80;99666.00;320950;30;1213;-74
2023/08/23 00:34:44;;;;;;;;;;;;;;;28.70;53.66;99665.16;317840;30;2492;-74
2023/08/23 00:34:55;;;;;;;;;;;;;;;28.70;53.54;99662.47;316483;30;2970;-73
2023/08/23 00:35:05;;;;;;;;;;;;;;;28.70;53.56;99660.59;317218;30;5031;-73
2023/08/23 00:35:15;;;;;;;;;;;;;;;28.70;53.23;99666.00;318028;30;5060;-73
2023/08/23 00:35:25;;;;;;;;;;;;;;;28.68;53.43;99669.88;318592;30;3537;-73
2023/08/23 00:35:36;;;;;;;;;;;;;;;28.65;53.51;99665.69;319555;30;5243;-73
2023/08/23 00:35:46;;;;;;;;;;;;;;;28.65;54.02;99665.69;314302;31;4222;-73
2023/08/23 00:35:56;;;;;;;;;;;;;;;28.63;53.96;99665.03;311959;31;4272;-73
2023/08/23 00:36:07;;;;;;;;;;;;;;;28.63;53.89;99666.88;314095;31;947;-73
2023/08/23 00:36:17;;;;;;;;;;;;;;;28.62;53.54;99665.19;314310;31;4357;-73
2023/08/23 00:36:27;;;;;;;;;;;;;;;28.62;53.86;99657.97;314893;31;4559;-73
2023/08/23 00:36:38;;;;;;;;;;;;;;;28.62;54.03;99668.72;314057;31;1216;-73
2023/08/23 00:36:48;;;;;;;;;;;;;;;28.62;53.63;99667.88;311481;31;4552;-73
2023/08/23 00:36:58;;;;;;;;;;;;;;;28.62;54.07;99666.03;311735;31;3375;-74
2023/08/23 00:37:09;;;;;;;;;;;;;;;28.62;53.58;99667.88;313372;31;3011;-74
2023/08/23 00:37:19;;;;;;;;;;;;;;;28.62;53.48;99674.13;310928;31;1426;-74
2023/08/23 00:37:29;;;;;;;;;;;;;;;28.61;54.04;99667.06;310786;31;4228;-74
2023/08/23 00:37:39;;;;;;;;;;;;;;;28.62;53.66;99663.34;305906;32;5110;-74
2023/08/23 00:37:50;;;;;;;;;;;;;;;28.62;53.74;99668.72;307521;32;1111;-74
2023/08/23 00:38:00;;;;;;;;;;;;;;;28.59;53.77;99662.88;306477;32;6411;-74
2023/08/23 00:38:10;;;;;;;;;;;;;;;28.59;53.90;99670.97;306552;31;6060;-74
2023/08/23 00:38:20;;;;;;;;;;;;;;;28.58;53.73;99667.44;308194;32;1210;-74
2023/08/23 00:38:30;;;;;;;;;;;;;;;28.58;53.92;99671.97;307250;32;6243;-74
2023/08/23 00:38:41;;;;;;;;;;;;;;;28.56;54.21;99661.38;306612;32;6395;-75
2023/08/23 00:38:51;;;;;;;;;;;;;;;28.56;54.02;99666.78;305342;32;1490;-75
2023/08/23 00:39:01;;;;;;;;;;;;;;;28.57;54.12;99671.16;304127;32;6322;-74
2023/08/23 00:39:11;;;;;;;;;;;;;;;28.58;53.65;99664.75;304397;32;4794;-74
2023/08/23 00:39:22;;;;;;;;;;;;;;;28.55;54.24;99662.41;305480;32;868;-74
2023/08/23 00:39:32;;;;;;;;;;;;;;;28.55;54.26;99666.94;305529;32;4573;-74
2023/08/23 00:39:43;;;;;;;;;;;;;;;28.52;54.06;99668.13;303037;32;6932;-74
2023/08/23 00:39:53;;;;;;;;;;;;;;;28.52;53.89;99661.91;302284;32;824;-74
2023/08/23 00:40:03;;;;;;;;;;;;;;;28.52;53.86;99661.91;299240;32;7110;-74
2023/08/23 00:40:14;;;;;;;;;;;;;;;28.51;53.92;99660.22;298886;32;7739;-74
2023/08/23 00:40:24;;;;;;;;;;;;;;;28.50;54.47;99659.41;298814;32;8577;-74
2023/08/23 00:40:34;;;;;;;;;;;;;;;28.51;54.05;99663.75;298247;33;861;-74
2023/08/23 00:40:44;;;;;;;;;;;;;;;28.51;53.91;99661.06;298012;32;8976;-74
2023/08/23 00:40:55;;;;;;;;;;;;;;;28.50;54.51;99664.78;297729;33;8712;-74
2023/08/23 00:41:05;;;;;;;;;;;;;;;28.51;54.46;99663.75;297959;33;1617;-74
2023/08/23 00:41:15;;;;;;;;;;;;;;;28.53;54.37;99668.97;296981;33;8997;-74
2023/08/23 00:41:25;;;;;;;;;;;;;;;28.52;54.55;99668.13;295803;33;7517;-74
2023/08/23 00:41:37;;;;;;;;;;;;;;;28.53;53.98;99663.59;294943;33;1231;-74
2023/08/23 00:41:47;;;;;;;;;;;;;;;28.52;54.54;99667.31;293167;33;6969;-74
2023/08/23 00:41:57;;;;;;;;;;;;;;;28.51;54.53;99661.06;291616;33;9212;-74
2023/08/23 00:42:07;;;;;;;;;;;;;;;28.50;54.78;99659.41;292178;33;1310;-74
2023/08/23 00:44:31;;;;;;;;;;;;;;;28.49;55.16;99665.81;2498368;27;19936;-73
2023/08/23 00:44:41;;;;;;;;;;;;;;;28.50;55.06;99663.94;354495;27;2936;-73
2023/08/23 00:44:51;;;;;;;;;;;;;;;28.49;54.91;99663.09;353275;28;1061;-73
2023/08/23 00:45:02;;;;;;;;;;;;;;;28.50;54.99;99670.16;353183;28;1210;-73
2023/08/23 00:45:12;;;;;;;;;;;;;;;28.51;54.75;99660.22;351745;28;867;-73
2023/08/23 00:45:22;;;;;;;;;;;;;;;28.50;54.62;99658.56;350414;28;1317;-73
2023/08/23 00:45:35;;;;;;;;;;;;;;;28.50;55.23;99666.63;350490;28;879;-73
2023/08/23 00:45:46;;;;;;;;;;;;;;;28.51;55.20;99663.75;350762;28;1637;-73
2023/08/23 00:45:56;;;;;;;;;;;;;;;28.51;55.14;99666.47;350939;28;1375;-73
2023/08/23 00:46:06;;;;;;;;;;;;;;;28.52;55.09;99667.31;349902;28;2703;-74
2023/08/23 00:46:16;;;;;;;;;;;;;;;28.53;54.63;99664.44;350325;28;903;-74
2023/08/23 00:46:27;;;;;;;;;;;;;;;28.53;54.62;99668.97;351776;28;1244;-74
2023/08/23 00:46:38;;;;;;;;;;;;;;;28.52;54.80;99662.75;352101;28;899;-74
2023/08/23 00:46:48;;;;;;;;;;;;;;;28.52;54.88;99661.91;351898;28;850;-74
2023/08/23 00:46:58;;;;;;;;;;;;;;;28.53;55.17;99663.59;351854;28;1426;-74
2023/08/23 00:47:08;;;;;;;;;;;;;;;28.51;54.73;99660.22;350073;28;1482;-74
2023/08/23 00:47:18;;;;;;;;;;;;;;;28.51;55.28;99666.47;349035;28;907;-74
2023/08/23 00:47:29;;;;;;;;;;;;;;;28.50;55.07;99664.78;348939;28;1773;-74
2023/08/23 00:47:39;;;;;;;;;;;;;;;28.50;54.80;99663.94;348823;28;1292;-74
2023/08/23 00:47:49;;;;;;;;;;;;;;;28.49;54.74;99665.81;347727;28;859;-74
2023/08/23 00:47:59;;;;;;;;;;;;;;;28.48;54.80;99662.28;350209;28;841;-74
2023/08/23 00:48:10;;;;;;;;;;;;;;;28.49;55.08;99665.81;350208;28;938;-74
2023/08/23 00:48:21;;;;;;;;;;;;;;;28.48;54.71;99662.28;351774;28;1128;-74
2023/08/23 00:48:31;;;;;;;;;;;;;;;28.49;55.06;99660.41;353308;28;804;-74
2023/08/23 00:48:41;;;;;;;;;;;;;;;28.50;55.22;99664.78;353121;28;785;-74
2023/08/23 00:48:51;;;;;;;;;;;;;;;28.50;55.24;99667.47;351596;28;1133;-75
2023/08/23 00:49:02;;;;;;;;;;;;;;;28.50;55.14;99663.94;348923;28;1204;-74
2023/08/23 00:49:12;;;;;;;;;;;;;;;28.51;54.71;99662.94;348747;28;1752;-74
2023/08/23 00:49:23;;;;;;;;;;;;;;;28.49;55.32;99663.09;347718;28;864;-74
2023/08/23 00:49:36;;;;;;;;;;;;;;;28.49;55.34;99671.19;347817;28;967;-74
2023/08/23 00:49:47;;;;;;;;;;;;;;;28.49;55.30;99665.81;347633;28;1173;-74
2023/08/23 00:49:57;;;;;;;;;;;;;;;28.50;55.00;99663.94;348572;28;812;-74
2023/08/23 00:50:08;;;;;;;;;;;;;;;28.47;55.11;99665.13;348706;28;1223;-74
2023/08/23 00:50:18;;;;;;;;;;;;;;;28.46;55.37;99663.47;349022;28;812;-74
2023/08/23 00:50:29;;;;;;;;;;;;;;;28.44;55.24;99670.88;347661;28;1196;-74
2023/08/23 00:50:40;;;;;;;;;;;;;;;28.43;55.54;99670.03;347520;28;840;-74
2023/08/23 00:50:50;;;;;;;;;;;;;;;28.43;55.43;99663.81;346413;28;1235;-74
2023/08/23 00:51:00;;;;;;;;;;;;;;;28.43;55.53;99663.81;344955;28;888;-74
2023/08/23 00:51:11;;;;;;;;;;;;;;;28.43;55.49;99669.19;341956;28;1244;-74
2023/08/23 00:51:21;;;;;;;;;;;;;;;28.41;55.35;99669.38;342374;28;905;-74
2023/08/23 00:51:31;;;;;;;;;;;;;;;28.42;55.43;99672.91;343528;28;939;-74
2023/08/23 00:51:42;;;;;;;;;;;;;;;28.40;55.06;99665.00;343586;28;927;-74
2023/08/23 00:51:52;;;;;;;;;;;;;;;28.40;55.00;99669.53;343591;28;844;-74
2023/08/23 00:52:04;;;;;;;;;;;;;;;28.39;55.25;99667.88;342243;28;938;-75
2023/08/23 00:52:14;;;;;;;;;;;;;;;28.38;55.71;99674.25;343186;28;874;-73
2023/08/23 00:52:24;;;;;;;;;;;;;;;28.38;55.26;99671.56;339143;29;1265;-73
2023/08/23 00:52:34;;;;;;;;;;;;;;;28.37;55.31;99668.03;341820;28;1247;-73
2023/08/23 00:52:45;;;;;;;;;;;;;;;28.36;55.64;99671.75;340575;29;1381;-74
2023/08/23 00:52:55;;;;;;;;;;;;;;;28.36;55.56;99673.59;341330;28;1289;-74
2023/08/23 00:53:05;;;;;;;;;;;;;;;28.34;55.29;99667.56;341969;28;1633;-74
2023/08/23 00:53:15;;;;;;;;;;;;;;;28.32;55.92;99667.72;343369;28;1317;-74
2023/08/23 00:53:26;;;;;;;;;;;;;;;28.33;55.78;99669.41;343383;28;1483;-74
2023/08/23 00:53:36;;;;;;;;;;;;;;;28.33;55.38;99674.78;344091;28;3114;-74
2023/08/23 00:53:46;;;;;;;;;;;;;;;28.33;55.91;99669.41;343896;28;5109;-74
2023/08/23 00:53:57;;;;;;;;;;;;;;;28.33;55.92;99674.78;347743;28;5377;-74
2023/08/23 00:54:09;;;;;;;;;;;;;;;28.32;55.53;99674.97;345852;28;1192;-74
2023/08/23 00:54:19;;;;;;;;;;;;;;;28.31;55.50;99665.22;342499;28;1314;-74
2023/08/23 00:54:29;;;;;;;;;;;;;;;28.31;56.02;99673.28;343230;28;1378;-74
2023/08/23 00:54:40;;;;;;;;;;;;;;;28.32;56.10;99672.28;343232;28;1814;-74
2023/08/23 00:54:50;;;;;;;;;;;;;;;28.31;55.86;99675.97;339581;29;1464;-74
2023/08/23 00:55:00;;;;;;;;;;;;;;;28.31;56.03;99670.59;336773;29;2103;-74
2023/08/23 00:55:10;;;;;;;;;;;;;;;28.30;56.15;99672.44;334084;29;1952;-74
2023/08/23 00:55:22;;;;;;;;;;;;;;;28.31;56.07;99676.81;333122;29;2118;-74
2023/08/23 00:55:32;;;;;;;;;;;;;;;28.31;55.55;99675.97;335521;29;4688;-74
2023/08/23 00:55:42;;;;;;;;;;;;;;;28.29;56.18;99676.16;335645;29;1591;-74
2023/08/23 00:55:52;;;;;;;;;;;;;;;28.27;55.94;99675.47;331874;29;1078;-74
2023/08/23 00:56:03;;;;;;;;;;;;;;;28.26;56.32;99671.13;331830;29;1889;-74
2023/08/23 00:56:13;;;;;;;;;;;;;;;28.26;55.86;99673.81;328714;29;1293;-74
2023/08/23 00:56:23;;;;;;;;;;;;;;;28.26;56.01;99673.81;326746;29;1852;-74
2023/08/23 00:56:33;;;;;;;;;;;;;;;28.24;56.41;99672.28;324439;30;1311;-74
2023/08/23 00:56:44;;;;;;;;;;;;;;;28.23;56.31;99679.53;325215;29;2061;-74
2023/08/23 00:56:55;;;;;;;;;;;;;;;28.22;56.01;99666.25;326751;29;2400;-74
2023/08/23 00:57:05;;;;;;;;;;;;;;;28.22;56.22;99677.84;327425;30;2501;-74
2023/08/23 00:57:16;;;;;;;;;;;;;;;28.22;55.94;99677.84;326216;30;1361;-74
2023/08/23 00:57:26;;;;;;;;;;;;;;;28.23;56.11;99676.00;327772;30;2692;-74
2023/08/23 00:57:36;;;;;;;;;;;;;;;28.23;56.20;99674.16;326612;30;2626;-74
2023/08/23 00:57:46;;;;;;;;;;;;;;;28.24;56.44;99667.75;323328;30;853;-74
2023/08/23 00:57:57;;;;;;;;;;;;;;;28.24;56.03;99680.38;323929;30;1826;-74
2023/08/23 00:58:07;;;;;;;;;;;;;;;28.25;55.95;99676.66;324310;30;1445;-74
2023/08/23 00:58:18;;;;;;;;;;;;;;;28.25;56.49;99676.66;325699;30;1003;-74
2023/08/23 00:58:28;;;;;;;;;;;;;;;28.24;56.16;99669.59;326360;30;2309;-74
2023/08/23 00:58:38;;;;;;;;;;;;;;;28.25;56.33;99673.97;324068;30;3303;-74
2023/08/23 00:58:48;;;;;;;;;;;;;;;28.23;55.97;99667.94;322154;30;1552;-74
2023/08/23 00:58:59;;;;;;;;;;;;;;;28.20;56.20;99673.63;317257;30;2704;-74
2023/08/23 00:59:09;;;;;;;;;;;;;;;28.16;56.63;99671.28;318151;30;3340;-74
2023/08/23 00:59:19;;;;;;;;;;;;;;;28.15;56.70;99672.31;321018;30;796;-74
2023/08/23 00:59:30;;;;;;;;;;;;;;;28.15;56.50;99672.31;321437;30;3355;-74
2023/08/23 00:59:40;;;;;;;;;;;;;;;28.16;56.71;99673.13;322376;30;3455;-73
2023/08/23 00:59:50;;;;;;;;;;;;;;;28.16;56.32;99676.66;321371;30;3518;-73